Time;durP1;ratioP1;P1;durP2;ratioP2;P2;SDS_P1;SDS_P2;PMS_P1;PMS_P2;Temp;Humidity;BMP_temperature;BMP_pressure;BME280_temperature;BME280_humidity;BME280_pressure;Samples;Min_cycle;Max_cycle;Signal;HPM_P1;HPM_P2
2021/07/28 00:01:20;;;;;;;;;;;;;;;22.24;66.80;100423.03;2209736;39;115086;-53
2021/07/28 00:02:51;;;;;;;;;;;;;;;22.23;66.96;100421.38;2210558;39;113878;-53
2021/07/28 00:04:25;;;;;;;;;;;;;;;22.22;67.13;100425.34;2211283;39;114134;-53
2021/07/28 00:05:57;;;;;;;;;;;;;;;22.24;67.12;100423.03;2210887;39;113554;-54
2021/07/28 00:07:28;;;;;;;;;;;;;;;22.25;66.91;100422.69;2210868;39;114561;-53
2021/07/28 00:09:01;;;;;;;;;;;;;;;22.23;66.91;100425.00;2211292;39;115084;-53
2021/07/28 00:10:32;;;;;;;;;;;;;;;22.25;66.74;100424.69;2203663;39;115484;-54
2021/07/28 00:12:04;;;;;;;;;;;;;;;22.23;66.95;100419.38;2209204;39;114798;-53
2021/07/28 00:13:36;;;;;;;;;;;;;;;22.26;67.08;100417.91;2210768;39;115139;-53
2021/07/28 00:15:10;;;;;;;;;;;;;;;22.24;66.97;100406.13;2210993;39;114923;-54
2021/07/28 00:16:41;;;;;;;;;;;;;;;22.24;67.02;100418.22;2203508;39;114708;-54
2021/07/28 00:18:20;;;;;;;;;;;;;;;22.28;67.32;100419.22;2208816;39;114775;-54
2021/07/28 00:24:47;;;;;;;;;;;;;;;22.27;67.13;100419.53;2210129;39;115915;-54
2021/07/28 00:26:19;;;;;;;;;;;;;;;22.30;66.88;100411.28;2210797;39;117687;-54
2021/07/28 00:27:50;;;;;;;;;;;;;;;22.31;67.06;100420.53;2211205;39;116336;-54
2021/07/28 00:29:22;;;;;;;;;;;;;;;22.30;67.27;100416.91;2210961;39;114658;-53
2021/07/28 00:30:53;;;;;;;;;;;;;;;22.31;67.04;100414.88;2211201;39;115527;-53
2021/07/28 00:32:25;;;;;;;;;;;;;;;22.30;67.00;100408.47;2211203;39;115592;-54
2021/07/28 00:33:57;;;;;;;;;;;;;;;22.30;66.89;100418.88;2210287;39;115982;-53
2021/07/28 00:35:28;;;;;;;;;;;;;;;22.32;67.12;100414.56;2210935;39;116545;-53
2021/07/28 00:37:00;;;;;;;;;;;;;;;22.32;66.92;100411.75;2203987;39;114721;-53
2021/07/28 00:38:31;;;;;;;;;;;;;;;22.30;67.05;100407.63;2208816;39;116232;-53
2021/07/28 00:40:03;;;;;;;;;;;;;;;22.29;67.08;100403.16;2207514;39;114590;-53
2021/07/28 00:41:38;;;;;;;;;;;;;;;22.32;67.17;100405.28;2210569;39;115217;-53
2021/07/28 00:43:12;;;;;;;;;;;;;;;22.33;67.25;100404.13;2212937;39;114701;-53
2021/07/28 00:44:44;;;;;;;;;;;;;;;22.35;67.23;100407.47;2210351;39;114001;-53
2021/07/28 00:46:15;;;;;;;;;;;;;;;22.32;67.28;100399.66;2202457;39;113845;-54
2021/07/28 00:47:48;;;;;;;;;;;;;;;22.33;67.16;100406.94;2208009;39;113880;-54
2021/07/28 00:49:21;;;;;;;;;;;;;;;22.32;67.39;100403.31;2211333;39;113830;-54
2021/07/28 00:50:55;;;;;;;;;;;;;;;22.31;67.25;100404.47;2211256;39;113731;-53
2021/07/28 00:52:29;;;;;;;;;;;;;;;22.38;67.42;100406.78;2209733;39;113829;-53
2021/07/28 00:54:01;;;;;;;;;;;;;;;22.36;67.64;100407.09;2211151;39;113708;-54
2021/07/28 00:55:33;;;;;;;;;;;;;;;22.38;67.35;100399.16;2207257;39;113749;-53
2021/07/28 00:57:05;;;;;;;;;;;;;;;22.39;67.58;100398.00;2207207;39;113600;-54
2021/07/28 00:58:37;;;;;;;;;;;;;;;22.36;67.27;100395.84;2210125;39;113989;-54
2021/07/28 01:00:09;;;;;;;;;;;;;;;22.37;67.59;100394.69;2214265;39;113975;-54
2021/07/28 01:01:41;;;;;;;;;;;;;;;22.37;67.60;100388.22;2210145;39;114006;-54
2021/07/28 01:03:13;;;;;;;;;;;;;;;22.35;67.68;100393.38;2211190;39;113777;-53
2021/07/28 01:04:45;;;;;;;;;;;;;;;22.37;67.84;100388.22;2218026;39;114265;-53
2021/07/28 01:06:17;;;;;;;;;;;;;;;22.39;67.88;100388.75;2212699;39;114958;-54
2021/07/28 01:07:49;;;;;;;;;;;;;;;22.35;67.70;100388.56;2210979;39;114991;-54
2021/07/28 01:09:20;;;;;;;;;;;;;;;22.37;67.83;100391.88;2210730;39;114871;-53
2021/07/28 01:10:52;;;;;;;;;;;;;;;22.38;67.87;100389.91;2210271;39;114108;-53
2021/07/28 01:12:28;;;;;;;;;;;;;;;22.37;67.88;100383.44;2209985;39;115002;-54
2021/07/28 01:14:02;;;;;;;;;;;;;;;22.38;68.02;100385.09;2209662;39;114934;-54
2021/07/28 01:17:07;;;;;;;;;;;;;;;22.37;67.80;100383.44;2211224;39;114806;-53
2021/07/28 01:18:39;;;;;;;;;;;;;;;22.37;68.22;100372.16;2210584;39;114821;-53
2021/07/28 01:20:11;;;;;;;;;;;;;;;22.38;67.97;100373.00;2208718;39;114984;-54
2021/07/28 01:21:44;;;;;;;;;;;;;;;22.40;67.92;100376.28;2209895;39;115045;-54
2021/07/28 01:23:20;;;;;;;;;;;;;;;22.38;68.08;100373.84;2210583;39;115182;-54
2021/07/28 01:24:52;;;;;;;;;;;;;;;22.37;68.03;100368.53;2210053;39;115525;-53
2021/07/28 01:26:24;;;;;;;;;;;;;;;22.39;67.78;100380.28;2204236;39;114382;-54
2021/07/28 01:27:56;;;;;;;;;;;;;;;22.37;67.98;100377.81;2212083;39;114652;-54
2021/07/28 01:29:28;;;;;;;;;;;;;;;22.39;68.07;100378.31;2211167;39;115633;-54
2021/07/28 01:31:01;;;;;;;;;;;;;;;22.39;67.79;100372.69;2210882;39;114686;-53
2021/07/28 01:32:34;;;;;;;;;;;;;;;22.37;67.63;100375.00;2205323;39;115641;-54
2021/07/28 01:34:07;;;;;;;;;;;;;;;22.39;67.89;100378.31;2211068;39;115574;-53
2021/07/28 01:35:39;;;;;;;;;;;;;;;22.39;67.64;100381.13;2210735;39;114288;-54
2021/07/28 01:37:12;;;;;;;;;;;;;;;22.37;67.92;100380.63;2207187;39;115683;-54
2021/07/28 01:38:43;;;;;;;;;;;;;;;22.41;67.62;100375.13;2209149;39;115840;-53
2021/07/28 01:40:15;;;;;;;;;;;;;;;22.36;67.36;100378.13;2209697;39;115525;-54
2021/07/28 01:41:56;;;;;;;;;;;;;;;22.40;67.81;100385.56;2210530;39;114545;-54
2021/07/28 01:43:28;;;;;;;;;;;;;;;22.37;67.33;100383.44;2209866;39;115236;-54
2021/07/28 01:44:59;;;;;;;;;;;;;;;22.38;67.71;100384.25;2207379;39;116015;-53
2021/07/28 01:46:31;;;;;;;;;;;;;;;22.39;67.44;100385.91;2207932;39;114919;-54
2021/07/28 01:48:03;;;;;;;;;;;;;;;22.38;67.70;100384.25;2210244;39;115609;-54
2021/07/28 01:49:34;;;;;;;;;;;;;;;22.36;67.47;100387.41;2206709;39;113763;-53
2021/07/28 01:51:06;;;;;;;;;;;;;;;22.40;67.56;100391.19;2209908;39;113657;-54
2021/07/28 01:52:38;;;;;;;;;;;;;;;22.41;67.52;100383.59;2210483;39;114072;-53
2021/07/28 01:54:10;;;;;;;;;;;;;;;22.39;67.44;100383.94;2212321;39;113987;-54
2021/07/28 01:55:42;;;;;;;;;;;;;;;22.36;67.31;100384.59;2203361;39;113767;-53
2021/07/28 01:57:14;;;;;;;;;;;;;;;22.38;67.66;100390.72;2207070;39;113649;-54
2021/07/28 01:58:53;;;;;;;;;;;;;;;22.37;67.78;100388.22;2210201;39;113905;-54
2021/07/28 02:00:25;;;;;;;;;;;;;;;22.37;67.71;100391.88;2210205;39;114261;-54
2021/07/28 02:01:57;;;;;;;;;;;;;;;22.39;67.85;100385.91;2206239;39;114088;-54
2021/07/28 02:03:29;;;;;;;;;;;;;;;22.40;67.88;100381.91;2204073;39;113701;-54
2021/07/28 02:05:01;;;;;;;;;;;;;;;22.38;67.67;100390.72;2210958;39;113620;-54
2021/07/28 02:06:33;;;;;;;;;;;;;;;22.42;67.87;100390.88;2211243;39;114190;-53
2021/07/28 02:08:06;;;;;;;;;;;;;;;22.40;67.61;100387.56;2211777;39;113889;-53
2021/07/28 02:09:38;;;;;;;;;;;;;;;22.39;67.96;100388.75;2210764;39;113881;-54
2021/07/28 02:11:10;;;;;;;;;;;;;;;22.37;67.84;100397.50;2213901;39;113618;-53
2021/07/28 02:12:41;;;;;;;;;;;;;;;22.38;67.72;100396.34;2211775;39;114894;-54
2021/07/28 02:14:13;;;;;;;;;;;;;;;22.39;67.67;100391.56;2210500;39;115269;-54
2021/07/28 02:15:45;;;;;;;;;;;;;;;22.38;67.55;100387.06;2211571;39;113947;-53
2021/07/28 02:17:16;;;;;;;;;;;;;;;22.40;67.80;100394.00;2210498;39;115142;-54
2021/07/28 02:18:48;;;;;;;;;;;;;;;22.38;67.82;100392.72;2208576;39;114888;-53
2021/07/28 02:20:20;;;;;;;;;;;;;;;22.39;67.58;100394.38;2207160;39;115013;-54
2021/07/28 02:21:52;;;;;;;;;;;;;;;22.40;67.96;100390.38;2211537;39;115038;-54
2021/07/28 02:23:23;;;;;;;;;;;;;;;22.36;67.43;100384.59;2211332;39;114923;-53
2021/07/28 02:24:55;;;;;;;;;;;;;;;22.37;67.54;100393.88;2211352;39;114962;-53
2021/07/28 02:26:26;;;;;;;;;;;;;;;22.37;68.04;100377.81;2211723;39;115361;-53
2021/07/28 02:27:58;;;;;;;;;;;;;;;22.38;67.64;100379.47;2210813;39;114940;-53
2021/07/28 02:29:31;;;;;;;;;;;;;;;22.34;68.02;100389.75;2211221;39;115086;-53
2021/07/28 02:31:02;;;;;;;;;;;;;;;22.38;67.90;100387.91;2211014;39;113920;-54
2021/07/28 02:32:34;;;;;;;;;;;;;;;22.37;67.89;100389.06;2214056;39;114052;-54
2021/07/28 02:34:06;;;;;;;;;;;;;;;22.38;67.94;100389.91;2210749;39;116695;-54
2021/07/28 02:35:38;;;;;;;;;;;;;;;22.41;67.98;100377.94;2206353;39;114807;-54
2021/07/28 02:37:09;;;;;;;;;;;;;;;22.37;67.59;100380.63;2211191;39;116638;-53
2021/07/28 02:38:41;;;;;;;;;;;;;;;22.36;67.53;100370.50;2207751;39;115811;-53
2021/07/28 02:40:14;;;;;;;;;;;;;;;22.38;68.16;100392.72;2212643;39;115541;-54
2021/07/28 02:41:45;;;;;;;;;;;;;;;22.36;68.00;100380.94;2211352;39;115757;-54
2021/07/28 02:43:17;;;;;;;;;;;;;;;22.39;67.93;100380.28;2203602;39;115911;-54
2021/07/28 02:44:48;;;;;;;;;;;;;;;22.38;67.89;100384.25;2209122;39;115636;-53
2021/07/28 02:46:21;;;;;;;;;;;;;;;22.36;67.55;100380.94;2210602;39;114621;-54
2021/07/28 02:47:53;;;;;;;;;;;;;;;22.39;67.56;100383.94;2208702;39;115616;-54
2021/07/28 02:49:24;;;;;;;;;;;;;;;22.38;67.21;100381.44;2210807;39;114888;-54
2021/07/28 02:50:57;;;;;;;;;;;;;;;22.39;67.51;100386.75;2210758;39;115599;-54
2021/07/28 02:52:29;;;;;;;;;;;;;;;22.40;67.13;100387.56;2209411;39;115715;-53
2021/07/28 02:54:01;;;;;;;;;;;;;;;22.41;67.07;100384.41;2213274;39;115534;-53
2021/07/28 02:55:32;;;;;;;;;;;;;;;22.40;66.97;100391.19;2210981;39;113976;-54
2021/07/28 02:57:04;;;;;;;;;;;;;;;22.41;67.25;100378.78;2214297;39;113645;-54
2021/07/28 02:58:36;;;;;;;;;;;;;;;22.39;67.03;100377.47;2211039;39;114029;-54
2021/07/28 03:00:08;;;;;;;;;;;;;;;22.40;66.97;100385.56;2211205;39;114007;-55
2021/07/28 03:01:39;;;;;;;;;;;;;;;22.39;66.78;100389.56;2210900;39;113736;-54
2021/07/28 03:03:11;;;;;;;;;;;;;;;22.41;66.83;100387.22;2210834;39;114273;-54
2021/07/28 03:04:43;;;;;;;;;;;;;;;22.40;66.91;100390.38;2211541;39;113917;-54
2021/07/28 03:06:14;;;;;;;;;;;;;;;22.40;66.72;100388.38;2211472;39;113778;-53
2021/07/28 03:07:46;;;;;;;;;;;;;;;22.42;66.46;100391.69;2210142;39;113766;-53
2021/07/28 03:09:18;;;;;;;;;;;;;;;22.40;66.46;100379.94;2209669;39;113674;-53
2021/07/28 03:10:50;;;;;;;;;;;;;;;22.38;66.32;100390.72;2210809;39;114179;-54
2021/07/28 03:12:21;;;;;;;;;;;;;;;22.40;66.19;100390.38;2211270;39;113926;-54
2021/07/28 03:13:53;;;;;;;;;;;;;;;22.31;66.48;100387.56;2211755;39;113719;-53
2021/07/28 03:15:25;;;;;;;;;;;;;;;22.34;66.52;100377.66;2212809;39;113939;-54
2021/07/28 03:16:56;;;;;;;;;;;;;;;22.38;66.27;100384.25;2210430;39;114732;-53
2021/07/28 03:18:28;;;;;;;;;;;;;;;22.38;66.13;100387.91;2210716;39;114832;-54
2021/07/28 03:19:59;;;;;;;;;;;;;;;22.36;66.08;100393.03;2213783;39;114917;-53
2021/07/28 03:21:31;;;;;;;;;;;;;;;22.35;66.00;100384.94;2208103;39;115118;-53
2021/07/28 03:23:03;;;;;;;;;;;;;;;22.36;65.92;100384.59;2208751;39;113966;-53
2021/07/28 03:24:39;;;;;;;;;;;;;;;22.39;65.68;100375.50;2210350;39;115323;-54
2021/07/28 03:26:10;;;;;;;;;;;;;;;22.39;65.94;100389.56;2210774;39;114069;-54
2021/07/28 03:27:42;;;;;;;;;;;;;;;22.36;65.74;100376.16;2210558;39;114225;-54
2021/07/28 03:29:14;;;;;;;;;;;;;;;22.38;65.72;100382.28;2210318;39;116069;-54
2021/07/28 03:30:45;;;;;;;;;;;;;;;22.37;65.83;100385.41;2207288;39;115799;-55
2021/07/28 03:32:17;;;;;;;;;;;;;;;22.41;65.66;100392.84;2205933;39;115018;-54
2021/07/28 03:33:48;;;;;;;;;;;;;;;22.37;65.43;100389.06;2207029;39;114807;-53
2021/07/28 03:35:20;;;;;;;;;;;;;;;22.37;65.52;100393.88;2206763;39;114805;-54
2021/07/28 03:36:52;;;;;;;;;;;;;;;22.36;65.56;100392.19;2213789;39;115655;-53
2021/07/28 03:38:24;;;;;;;;;;;;;;;22.35;65.45;100394.19;2213965;39;115736;-54
2021/07/28 03:40:00;;;;;;;;;;;;;;;22.34;65.30;100401.00;2212594;39;115579;-53
2021/07/28 03:41:34;;;;;;;;;;;;;;;22.32;65.40;100391.22;2210675;39;115755;-54
2021/07/28 03:43:06;;;;;;;;;;;;;;;22.33;65.25;100393.72;2208891;39;115670;-54
2021/07/28 03:44:37;;;;;;;;;;;;;;;22.33;65.19;100388.09;2204136;39;115859;-54
2021/07/28 03:46:09;;;;;;;;;;;;;;;22.33;65.21;100393.72;2203802;39;114659;-54
2021/07/28 03:47:41;;;;;;;;;;;;;;;22.29;65.24;100384.28;2205860;39;116584;-54
2021/07/28 03:49:12;;;;;;;;;;;;;;;22.33;65.32;100387.25;2208334;39;114915;-53
2021/07/28 03:50:44;;;;;;;;;;;;;;;22.30;65.41;100383.13;2210801;39;115532;-53
2021/07/28 03:52:15;;;;;;;;;;;;;;;22.34;65.27;100392.56;2211221;39;115509;-54
2021/07/28 03:53:47;;;;;;;;;;;;;;;22.34;65.18;100392.56;2211195;39;114745;-54
2021/07/28 03:55:19;;;;;;;;;;;;;;;22.32;65.20;100377.97;2211491;39;116711;-54
2021/07/28 03:56:50;;;;;;;;;;;;;;;22.32;65.08;100377.97;2208562;39;115802;-54
2021/07/28 03:58:22;;;;;;;;;;;;;;;22.31;65.21;100370.69;2207804;39;115622;-53
2021/07/28 03:59:53;;;;;;;;;;;;;;;22.30;64.93;100374.69;2214464;39;115597;-53
2021/07/28 04:01:25;;;;;;;;;;;;;;;22.35;64.87;100380.09;2211441;39;113769;-53
2021/07/28 04:02:57;;;;;;;;;;;;;;;22.37;64.73;100394.69;2211057;39;113883;-53
2021/07/28 04:04:29;;;;;;;;;;;;;;;22.35;64.92;100385.75;2211076;39;113820;-53
2021/07/28 04:06:00;;;;;;;;;;;;;;;22.33;65.08;100382.44;2209035;39;113790;-54
2021/07/28 04:07:32;;;;;;;;;;;;;;;22.35;64.67;100384.94;2210470;39;114321;-54
2021/07/28 04:09:04;;;;;;;;;;;;;;;22.35;64.83;100380.09;2211217;39;113944;-54
2021/07/28 04:10:37;;;;;;;;;;;;;;;22.34;65.09;100380.47;2211706;39;113954;-54
2021/07/28 04:12:09;;;;;;;;;;;;;;;22.33;64.95;100390.06;2211523;39;114041;-53
2021/07/28 04:13:40;;;;;;;;;;;;;;;22.35;64.54;100376.50;2210896;39;113823;-53
2021/07/28 04:15:12;;;;;;;;;;;;;;;22.33;64.51;100390.06;2211363;39;114003;-54
2021/07/28 04:16:44;;;;;;;;;;;;;;;22.31;64.51;100381.13;2216111;39;113638;-60
2021/07/28 04:18:15;;;;;;;;;;;;;;;22.34;64.51;100386.94;2209983;39;113598;-53
2021/07/28 04:19:49;;;;;;;;;;;;;;;22.34;64.62;100380.47;2210985;39;114880;-54
2021/07/28 04:21:20;;;;;;;;;;;;;;;22.35;64.49;100380.09;2213521;39;113984;-54
2021/07/28 04:22:52;;;;;;;;;;;;;;;22.32;64.73;100380.78;2210830;39;114960;-54
2021/07/28 04:24:24;;;;;;;;;;;;;;;22.34;64.41;100386.09;2210235;39;115094;-54
2021/07/28 04:25:56;;;;;;;;;;;;;;;22.33;64.39;100379.63;2208095;39;114867;-54
2021/07/28 04:27:29;;;;;;;;;;;;;;;22.32;64.59;100379.97;2207488;39;115537;-53
2021/07/28 04:29:02;;;;;;;;;;;;;;;22.32;64.41;100385.59;2210433;39;116001;-53
2021/07/28 04:30:34;;;;;;;;;;;;;;;22.35;64.40;100385.75;2210458;39;114965;-54
2021/07/28 04:32:06;;;;;;;;;;;;;;;22.31;64.70;100386.75;2207348;39;115112;-54
2021/07/28 04:33:37;;;;;;;;;;;;;;;22.37;64.44;100382.59;2207489;39;114802;-54
2021/07/28 04:35:09;;;;;;;;;;;;;;;22.34;64.63;100386.94;2213662;39;115071;-53
2021/07/28 04:36:41;;;;;;;;;;;;;;;22.36;64.46;100386.56;2212721;39;115090;-54
2021/07/28 04:38:12;;;;;;;;;;;;;;;22.36;64.37;100384.59;2209976;39;115006;-53
2021/07/28 04:39:44;;;;;;;;;;;;;;;22.34;64.31;100386.09;2210998;39;114992;-54
2021/07/28 04:41:18;;;;;;;;;;;;;;;22.33;64.49;100384.44;2205618;39;114864;-54
2021/07/28 04:42:50;;;;;;;;;;;;;;;22.34;64.50;100392.56;2213190;39;115431;-53
2021/07/28 04:44:22;;;;;;;;;;;;;;;22.34;64.49;100400.16;2210186;39;115871;-54
2021/07/28 04:45:58;;;;;;;;;;;;;;;22.32;64.47;100394.88;2211217;39;114918;-54
2021/07/28 04:47:30;;;;;;;;;;;;;;;22.33;64.08;100393.72;2210293;39;115520;-53
2021/07/28 04:49:02;;;;;;;;;;;;;;;22.33;64.20;100402.16;2210310;39;114568;-54
2021/07/28 04:50:34;;;;;;;;;;;;;;;22.35;64.33;100397.00;2211072;39;114659;-53
2021/07/28 04:52:07;;;;;;;;;;;;;;;22.34;64.04;100406.63;2210890;39;115584;-54
2021/07/28 04:53:38;;;;;;;;;;;;;;;22.35;64.18;100404.66;2210537;39;114002;-54
2021/07/28 04:55:10;;;;;;;;;;;;;;;22.34;64.31;100406.63;2210852;39;115563;-54
2021/07/28 04:56:42;;;;;;;;;;;;;;;22.33;64.32;100398.50;2216762;39;115713;-54
2021/07/28 04:58:13;;;;;;;;;;;;;;;22.37;64.01;100400.31;2211244;39;115662;-53
2021/07/28 04:59:45;;;;;;;;;;;;;;;22.33;64.30;100406.94;2209246;39;115658;-54
2021/07/28 05:01:17;;;;;;;;;;;;;;;22.35;63.87;100413.88;2209060;39;116722;-54
2021/07/28 05:02:49;;;;;;;;;;;;;;;22.28;64.04;100409.94;2207729;39;114897;-53
2021/07/28 05:04:20;;;;;;;;;;;;;;;22.31;64.20;100407.28;2212202;39;115513;-54
2021/07/28 05:05:52;;;;;;;;;;;;;;;22.31;64.00;100414.88;2210862;39;113894;-54
2021/07/28 05:07:23;;;;;;;;;;;;;;;22.30;64.13;100411.28;2210315;39;113640;-54
2021/07/28 05:08:56;;;;;;;;;;;;;;;22.26;63.88;100407.44;2202016;39;114005;-54
2021/07/28 05:10:27;;;;;;;;;;;;;;;22.28;64.11;100405.13;2202618;39;113951;-53
2021/07/28 05:11:59;;;;;;;;;;;;;;;22.27;63.90;100408.28;2211141;39;113773;-54
2021/07/28 05:13:30;;;;;;;;;;;;;;;22.29;63.89;100412.44;2210724;39;114403;-54
2021/07/28 05:15:02;;;;;;;;;;;;;;;22.28;63.88;100412.75;2210151;39;113995;-54
2021/07/28 05:16:34;;;;;;;;;;;;;;;22.30;63.82;100399.19;2207876;39;113746;-54
2021/07/28 05:18:05;;;;;;;;;;;;;;;22.30;63.91;100405.66;2199409;39;113780;-54
2021/07/28 05:19:37;;;;;;;;;;;;;;;22.32;64.03;100405.28;2204142;39;115007;-54
2021/07/28 05:21:09;;;;;;;;;;;;;;;22.35;63.73;100413.88;2209650;39;113736;-53
2021/07/28 05:22:40;;;;;;;;;;;;;;;22.30;63.78;100405.66;2210189;39;113838;-53
2021/07/28 05:24:12;;;;;;;;;;;;;;;22.30;63.83;100411.28;2210591;39;114975;-54
2021/07/28 05:25:43;;;;;;;;;;;;;;;22.28;63.80;100410.78;2211008;39;113952;-53
2021/07/28 05:27:16;;;;;;;;;;;;;;;22.28;63.85;100410.78;2212126;39;114149;-54
2021/07/28 05:28:47;;;;;;;;;;;;;;;22.28;63.90;100416.41;2209054;39;115116;-54
2021/07/28 05:30:19;;;;;;;;;;;;;;;22.29;63.62;100420.88;2213705;39;115434;-53
2021/07/28 05:31:50;;;;;;;;;;;;;;;22.29;63.41;100420.88;2210292;39;113982;-53
2021/07/28 05:33:22;;;;;;;;;;;;;;;22.31;63.45;100420.53;2210479;39;113889;-54
2021/07/28 05:34:54;;;;;;;;;;;;;;;22.29;63.58;100418.06;2211133;39;114938;-53
2021/07/28 05:36:25;;;;;;;;;;;;;;;22.31;63.82;100423.34;2211165;39;114931;-54
2021/07/28 05:37:58;;;;;;;;;;;;;;;22.30;63.61;100421.69;2202091;39;114950;-54
2021/07/28 05:39:29;;;;;;;;;;;;;;;22.32;63.52;100425.00;2207238;39;115307;-53
2021/07/28 05:41:01;;;;;;;;;;;;;;;22.30;63.35;100419.72;2210747;39;115639;-53
2021/07/28 05:42:33;;;;;;;;;;;;;;;22.30;63.54;100432.97;2210513;39;114881;-53
2021/07/28 05:44:07;;;;;;;;;;;;;;;22.31;63.46;100434.59;2211004;39;115509;-54
2021/07/28 05:45:39;;;;;;;;;;;;;;;22.29;63.07;100429.31;2210837;39;114820;-54
2021/07/28 05:47:10;;;;;;;;;;;;;;;22.29;63.41;100425.66;2210062;39;114096;-54
2021/07/28 05:48:42;;;;;;;;;;;;;;;22.31;63.39;100424.16;2213285;39;115031;-53
2021/07/28 05:50:14;;;;;;;;;;;;;;;22.31;63.28;100426.16;2205673;39;114732;-54
2021/07/28 05:51:45;;;;;;;;;;;;;;;22.30;63.40;100422.53;2210675;39;116269;-53
2021/07/28 05:53:17;;;;;;;;;;;;;;;22.30;63.48;100433.78;2210767;39;115984;-54
2021/07/28 05:54:49;;;;;;;;;;;;;;;22.33;63.43;100443.53;2204232;39;114655;-54
2021/07/28 05:56:20;;;;;;;;;;;;;;;22.30;63.35;100441.41;2213425;39;114801;-54
2021/07/28 05:57:54;;;;;;;;;;;;;;;22.30;63.13;100441.41;2211711;39;115774;-53
2021/07/28 05:59:27;;;;;;;;;;;;;;;22.31;62.91;100440.22;2210171;39;115593;-54
2021/07/28 06:01:00;;;;;;;;;;;;;;;22.28;63.00;100444.53;2211205;39;115678;-54
2021/07/28 06:02:32;;;;;;;;;;;;;;;22.29;63.06;100454.66;2210317;39;115541;-54
2021/07/28 06:04:04;;;;;;;;;;;;;;;22.29;63.01;100456.63;2215453;39;115516;-53
2021/07/28 06:05:36;;;;;;;;;;;;;;;22.29;63.18;100436.94;2209289;39;115702;-53
2021/07/28 06:07:08;;;;;;;;;;;;;;;22.27;63.34;100440.06;2204524;39;115874;-53
2021/07/28 06:08:39;;;;;;;;;;;;;;;22.28;63.02;100438.09;2208178;39;114492;-54
2021/07/28 06:10:11;;;;;;;;;;;;;;;22.26;63.12;100440.41;2212663;39;116539;-54
2021/07/28 06:11:43;;;;;;;;;;;;;;;22.30;63.24;100439.41;2210278;39;113809;-53
2021/07/28 06:13:15;;;;;;;;;;;;;;;22.34;63.05;100443.22;2211092;39;113708;-54
2021/07/28 06:14:46;;;;;;;;;;;;;;;22.29;62.85;100437.75;2209820;39;113842;-53
2021/07/28 06:16:18;;;;;;;;;;;;;;;22.30;62.99;100435.78;2210339;39;113915;-54
2021/07/28 06:17:52;;;;;;;;;;;;;;;22.30;62.90;100447.88;2209680;39;113636;-54
2021/07/28 06:19:24;;;;;;;;;;;;;;;22.30;62.64;100442.22;2210486;39;113916;-54
2021/07/28 06:20:56;;;;;;;;;;;;;;;22.30;62.91;100450.69;2210669;39;113814;-54
2021/07/28 06:22:27;;;;;;;;;;;;;;;22.32;62.57;100445.53;2209317;39;114317;-53
2021/07/28 06:24:00;;;;;;;;;;;;;;;22.29;62.79;100439.75;2209565;39;113770;-54
2021/07/28 06:25:31;;;;;;;;;;;;;;;22.26;62.76;100444.03;2209598;39;113986;-54
2021/07/28 06:27:03;;;;;;;;;;;;;;;22.24;62.66;100452.00;2209689;39;114279;-54
2021/07/28 06:28:35;;;;;;;;;;;;;;;22.22;62.61;100456.28;2210580;39;113728;-54
2021/07/28 06:30:07;;;;;;;;;;;;;;;22.25;62.49;100448.03;2210598;39;114097;-54
2021/07/28 06:31:39;;;;;;;;;;;;;;;22.24;62.33;100443.56;2213443;39;113991;-53
2021/07/28 06:33:10;;;;;;;;;;;;;;;22.27;62.44;100456.13;2210112;39;115142;-54
2021/07/28 06:34:42;;;;;;;;;;;;;;;22.26;62.40;100454.50;2210516;39;115230;-54
2021/07/28 06:36:14;;;;;;;;;;;;;;;22.26;62.14;100448.88;2209088;39;115384;-53
2021/07/28 06:37:45;;;;;;;;;;;;;;;22.27;62.45;100461.75;2209486;39;114851;-54
2021/07/28 06:39:17;;;;;;;;;;;;;;;22.27;62.18;100454.13;2205891;39;115640;-55
2021/07/28 06:40:49;;;;;;;;;;;;;;;22.25;62.26;100450.00;2210578;39;114923;-53
2021/07/28 06:42:20;;;;;;;;;;;;;;;22.27;62.41;100461.75;2203232;39;114108;-54
2021/07/28 06:43:52;;;;;;;;;;;;;;;22.22;61.98;100459.94;2211947;39;115076;-54
2021/07/28 06:45:23;;;;;;;;;;;;;;;22.25;62.09;100469.72;2202525;39;114883;-54
2021/07/28 06:46:55;;;;;;;;;;;;;;;22.26;62.19;100460.13;2208565;39;114844;-54
2021/07/28 06:48:27;;;;;;;;;;;;;;;22.24;62.24;100462.44;2210249;39;114813;-54
2021/07/28 06:49:58;;;;;;;;;;;;;;;22.20;62.10;100462.28;2215897;39;114347;-53
2021/07/28 06:51:31;;;;;;;;;;;;;;;22.21;62.25;100463.94;2206563;39;115332;-53
2021/07/28 06:53:03;;;;;;;;;;;;;;;22.20;62.25;100462.28;2211276;39;115056;-53
2021/07/28 06:54:34;;;;;;;;;;;;;;;22.23;62.35;100464.41;2210725;39;115734;-54
2021/07/28 06:56:06;;;;;;;;;;;;;;;22.21;62.19;100461.13;2214953;39;116165;-53
2021/07/28 06:57:41;;;;;;;;;;;;;;;22.22;61.76;100464.72;2213189;39;115932;-54
2021/07/28 06:59:12;;;;;;;;;;;;;;;22.20;62.05;100464.25;2211642;39;115598;-54
2021/07/28 07:00:44;;;;;;;;;;;;;;;22.24;62.04;100471.69;2210279;39;116123;-54
2021/07/28 07:02:15;;;;;;;;;;;;;;;22.25;62.20;100466.91;2210933;39;115863;-53
2021/07/28 07:03:47;;;;;;;;;;;;;;;22.22;62.03;100470.34;2210445;39;116236;-54
2021/07/28 07:05:28;;;;;;;;;;;;;;;22.23;61.83;100460.75;2209617;39;116202;-54
2021/07/28 07:07:00;;;;;;;;;;;;;;;22.23;61.72;100467.22;2216699;39;116116;-54
2021/07/28 07:08:33;;;;;;;;;;;;;;;22.19;61.60;100466.22;2209743;39;115960;-54
2021/07/28 07:10:08;;;;;;;;;;;;;;;22.19;61.50;100463.41;2210817;39;114501;-53
2021/07/28 07:11:40;;;;;;;;;;;;;;;22.17;61.24;100483.44;2210951;39;115462;-53
2021/07/28 07:13:12;;;;;;;;;;;;;;;22.15;61.34;100477.34;2209954;39;115494;-53
2021/07/28 07:14:43;;;;;;;;;;;;;;;22.18;61.01;100485.09;2208245;39;115811;-53
2021/07/28 07:16:15;;;;;;;;;;;;;;;22.17;60.97;100479.78;2214349;39;115717;-53
2021/07/28 07:17:47;;;;;;;;;;;;;;;22.18;60.93;100479.47;2213391;39;113711;-53
2021/07/28 07:19:18;;;;;;;;;;;;;;;22.12;61.13;100474.34;2210245;39;114186;-54
2021/07/28 07:20:50;;;;;;;;;;;;;;;22.15;60.92;100470.88;2210885;39;114172;-54
2021/07/28 07:22:22;;;;;;;;;;;;;;;22.16;60.76;100483.78;2211638;39;113775;-53
2021/07/28 07:23:54;;;;;;;;;;;;;;;22.15;60.71;100480.16;2211657;39;114122;-53
2021/07/28 07:25:26;;;;;;;;;;;;;;;22.12;60.36;100480.00;2211079;39;113705;-54
2021/07/28 07:26:58;;;;;;;;;;;;;;;22.11;60.75;100487.59;2210795;39;113888;-54
2021/07/28 07:28:29;;;;;;;;;;;;;;;22.09;60.58;100478.66;2215120;39;113877;-53
2021/07/28 07:30:02;;;;;;;;;;;;;;;22.14;60.38;100478.47;2212941;39;114191;-53
2021/07/28 07:31:33;;;;;;;;;;;;;;;22.15;60.37;100474.50;2209791;39;113990;-53
2021/07/28 07:34:46;;;;;;;;;;;;;;;22.13;60.36;100474.00;2209222;39;113711;-54
2021/07/28 07:36:19;;;;;;;;;;;;;;;22.14;60.50;100483.28;2211343;39;113985;-54
2021/07/28 07:37:50;;;;;;;;;;;;;;;22.10;60.41;100473.84;2213766;39;113697;-53
2021/07/28 07:39:22;;;;;;;;;;;;;;;22.14;60.35;100478.47;2210089;39;115408;-53
2021/07/28 07:40:54;;;;;;;;;;;;;;;22.12;60.35;100489.22;2206865;39;114716;-53
2021/07/28 07:42:25;;;;;;;;;;;;;;;22.07;59.93;100486.59;2210485;39;114809;-54
2021/07/28 07:43:58;;;;;;;;;;;;;;;22.05;60.10;100496.50;2210582;39;114841;-53
2021/07/28 07:45:30;;;;;;;;;;;;;;;22.06;60.19;100489.72;2210774;39;115580;-54
2021/07/28 07:47:02;;;;;;;;;;;;;;;22.05;60.11;100486.09;2213072;39;114585;-53
2021/07/28 07:48:34;;;;;;;;;;;;;;;22.07;60.14;100494.22;2208011;39;114759;-53
2021/07/28 07:50:06;;;;;;;;;;;;;;;22.08;59.73;100488.22;2216816;39;114944;-53
2021/07/28 07:51:37;;;;;;;;;;;;;;;22.06;59.95;100489.72;2212875;39;114871;-54
2021/07/28 07:53:09;;;;;;;;;;;;;;;22.07;59.74;100485.78;2205330;39;115092;-54
2021/07/28 07:54:41;;;;;;;;;;;;;;;22.03;59.65;100491.22;2213915;39;115476;-53
2021/07/28 07:56:12;;;;;;;;;;;;;;;22.04;59.36;100498.50;2209961;39;115062;-53